Time;durP1;ratioP1;P1;durP2;ratioP2;P2;SDS_P1;SDS_P2;PMS_P1;PMS_P2;Temp;Humidity;BMP_temperature;BMP_pressure;BME280_temperature;BME280_humidity;BME280_pressure;Samples;Min_cycle;Max_cycle;Signal;HPM_P1;HPM_P2
2021/11/14 00:00:10;;;;;;;14.37;8.60;;;;;;;15.31;56.46;100649.50;5098670;28;20052;-64
2021/11/14 00:02:37;;;;;;;13.00;7.77;;;;;;;15.28;56.74;100643.66;5092254;28;20093;-62
2021/11/14 00:05:06;;;;;;;19.73;8.50;;;;;;;15.19;56.93;100640.75;5088872;28;20052;-63
2021/11/14 00:07:34;;;;;;;14.98;7.40;;;;;;;15.07;56.96;100643.19;5099748;28;20051;-63
2021/11/14 00:10:02;;;;;;;10.73;6.77;;;;;;;15.09;57.03;100646.56;5091792;28;20126;-63
2021/11/14 00:12:29;;;;;;;15.47;8.47;;;;;;;15.11;57.29;100647.06;5110013;28;20135;-62
2021/11/14 00:14:56;;;;;;;13.73;7.87;;;;;;;15.17;57.05;100648.63;5112929;28;20075;-61
2021/11/14 00:17:23;;;;;;;15.20;8.13;;;;;;;15.17;56.81;100648.63;5091049;28;20471;-62
2021/11/14 00:19:50;;;;;;;12.90;6.23;;;;;;;15.23;56.95;100644.59;5064075;28;20546;-61
2021/11/14 00:22:18;;;;;;;11.40;5.80;;;;;;;15.19;56.55;100646.38;5071208;28;20049;-66
2021/11/14 00:24:45;;;;;;;15.80;8.13;;;;;;;15.27;56.39;100651.25;5075318;28;20063;-63
2021/11/14 00:27:12;;;;;;;16.57;8.60;;;;;;;15.22;56.61;100656.16;5085003;28;20040;-63
2021/11/14 00:29:39;;;;;;;8.57;5.23;;;;;;;15.11;56.92;100647.91;5085881;28;20500;-64
2021/11/14 00:32:07;;;;;;;11.83;5.43;;;;;;;15.06;56.99;100647.16;5092059;28;20559;-63
2021/11/14 00:34:35;;;;;;;8.27;5.37;;;;;;;15.05;56.70;100634.25;5070145;28;20378;-63
2021/11/14 00:37:03;;;;;;;12.53;6.13;;;;;;;15.09;56.66;100626.88;5071766;28;20128;-63
2021/11/14 00:39:30;;;;;;;18.13;7.47;;;;;;;15.20;56.30;100639.59;5071510;28;20079;-68
2021/11/14 00:41:57;;;;;;;17.07;7.73;;;;;;;15.13;56.42;100645.63;5071704;28;20044;-65
2021/11/14 00:44:24;;;;;;;11.07;6.73;;;;;;;15.22;56.28;100648.56;5082390;28;20539;-62
2021/11/14 00:46:52;;;;;;;14.20;7.63;;;;;;;15.19;56.33;100643.56;5073385;28;20048;-63
2021/11/14 00:49:18;;;;;;;9.80;6.47;;;;;;;15.19;56.05;100640.75;5053777;28;20559;-64
2021/11/14 00:51:45;;;;;;;8.27;4.87;;;;;;;15.26;55.93;100635.53;5071394;28;20584;-63
2021/11/14 00:54:14;;;;;;;10.23;5.07;;;;;;;15.28;55.91;100638.03;5083067;28;20087;-64
2021/11/14 00:56:41;;;;;;;13.10;7.67;;;;;;;15.24;55.74;100618.13;5077893;28;20071;-64
2021/11/14 00:59:08;;;;;;;19.30;8.57;;;;;;;15.19;55.76;100606.97;5067627;28;20048;-62
2021/11/14 01:01:35;;;;;;;11.37;7.00;;;;;;;15.35;55.46;100615.94;5071355;28;20504;-64
2021/11/14 01:04:03;;;;;;;12.33;6.90;;;;;;;15.49;55.25;100630.88;5056514;28;20076;-61
2021/11/14 01:06:30;;;;;;;11.70;5.60;;;;;;;15.62;54.59;100634.84;5089509;28;20127;-63
2021/11/14 01:08:57;;;;;;;12.33;6.03;;;;;;;15.71;54.46;100635.81;5083363;28;20071;-63
2021/11/14 01:11:24;;;;;;;13.80;6.67;;;;;;;15.70;54.41;100630.50;5076327;28;20076;-63
2021/11/14 01:13:51;;;;;;;14.10;6.73;;;;;;;15.72;54.49;100634.66;5050606;28;20052;-61
2021/11/14 01:16:22;;;;;;;12.97;6.73;;;;;;;15.60;54.51;100635.16;5078082;28;20127;-59
2021/11/14 01:18:49;;;;;;;15.17;7.13;;;;;;;15.41;54.57;100612.72;5087895;28;20049;-59
2021/11/14 01:21:17;;;;;;;14.30;7.90;;;;;;;15.18;54.84;100580.00;5075337;28;20048;-59
2021/11/14 01:23:46;;;;;;;13.77;6.20;;;;;;;15.44;54.79;100624.50;5078145;28;20119;-59
2021/11/14 01:26:13;;;;;;;13.17;8.30;;;;;;;15.28;55.06;100616.38;5072588;28;20049;-61
2021/11/14 01:28:40;;;;;;;9.57;3.90;;;;;;;15.16;55.18;100607.59;5081361;28;20131;-55
2021/11/14 01:31:07;;;;;;;10.13;6.07;;;;;;;15.13;55.63;100619.47;5077147;28;20066;-56
2021/11/14 01:33:35;;;;;;;16.50;6.70;;;;;;;15.03;55.76;100609.22;5070183;28;20049;-55
2021/11/14 01:36:03;;;;;;;9.40;3.97;;;;;;;14.80;56.13;100587.72;5073770;28;20108;-60
2021/11/14 01:38:30;;;;;;;10.10;4.83;;;;;;;14.86;56.30;100597.75;5072788;28;20902;-61
2021/11/14 01:41:04;;;;;;;5.07;2.70;;;;;;;14.76;56.33;100604.38;5080984;28;20458;-62
2021/11/14 01:43:40;;;;;;;6.97;3.73;;;;;;;14.74;56.19;100600.22;5073164;28;20084;-61
2021/11/14 01:46:08;;;;;;;10.13;3.93;;;;;;;14.84;56.11;100595.25;5072445;28;20136;-61
2021/11/14 01:48:35;;;;;;;4.20;2.83;;;;;;;14.81;55.86;100589.41;5072912;28;20083;-61
2021/11/14 01:51:03;;;;;;;4.37;3.83;;;;;;;14.82;55.89;100608.75;5079753;28;20131;-61
2021/11/14 01:53:30;;;;;;;5.43;3.23;;;;;;;14.87;55.53;100599.41;5081555;28;20128;-61
2021/11/14 01:55:58;;;;;;;4.47;3.30;;;;;;;14.91;55.29;100592.88;5073379;28;20178;-60
2021/11/14 01:58:27;;;;;;;4.47;2.23;;;;;;;15.12;54.67;100598.13;5076471;28;20102;-62
2021/11/14 02:00:59;;;;;;;7.90;4.03;;;;;;;15.39;53.96;100605.75;5075963;28;20123;-62
2021/11/14 02:03:29;;;;;;;8.87;4.87;;;;;;;15.55;53.69;100612.72;5069611;28;20048;-64
2021/11/14 02:05:57;;;;;;;13.63;6.95;;;;;;;15.63;53.21;100599.94;5068200;28;20098;-64
2021/11/14 02:08:24;;;;;;;18.97;8.50;;;;;;;15.64;53.26;100621.28;5072356;28;20544;-65
2021/11/14 02:10:52;;;;;;;15.63;9.27;;;;;;;15.48;53.49;100615.13;5072519;28;21318;-63
2021/11/14 02:13:19;;;;;;;14.30;8.03;;;;;;;15.39;53.46;100617.84;5072134;28;20075;-63
2021/11/14 02:15:48;;;;;;;14.17;9.53;;;;;;;15.31;53.47;100621.34;5075714;28;20076;-63
2021/11/14 02:18:16;;;;;;;17.43;10.40;;;;;;;15.26;53.48;100618.66;5074283;28;20495;-68
2021/11/14 02:20:45;;;;;;;10.60;6.53;;;;;;;15.13;53.87;100613.84;5089689;28;20525;-69
2021/11/14 02:23:16;;;;;;;14.03;5.80;;;;;;;15.07;53.92;100615.91;5098394;28;20147;-69
2021/11/14 02:25:45;;;;;;;10.27;5.43;;;;;;;15.01;54.24;100622.78;5092213;28;20131;-63
2021/11/14 02:28:14;;;;;;;11.77;6.72;;;;;;;14.78;54.43;100599.28;5093533;28;20123;-64
2021/11/14 02:30:41;;;;;;;14.30;5.43;;;;;;;14.83;54.69;100621.66;5094840;28;20102;-63
2021/11/14 02:33:08;;;;;;;10.97;5.87;;;;;;;14.78;54.85;100609.69;5075957;28;20135;-64
2021/11/14 02:35:45;;;;;;;11.05;6.40;;;;;;;14.74;54.87;100605.84;5076916;28;20044;-60
2021/11/14 02:38:12;;;;;;;8.50;6.00;;;;;;;14.75;54.63;100602.72;5083955;28;20131;-61
2021/11/14 02:40:39;;;;;;;9.03;6.00;;;;;;;14.86;54.52;100621.06;5090403;28;20071;-61
2021/11/14 02:43:06;;;;;;;9.80;6.00;;;;;;;14.86;54.53;100614.59;5092566;28;20351;-61
2021/11/14 02:45:33;;;;;;;10.30;6.30;;;;;;;14.87;54.53;100614.31;5079797;28;20123;-72
2021/11/14 02:48:00;;;;;;;10.37;5.67;;;;;;;14.83;54.59;100606.78;5095185;28;20123;-66
2021/11/14 02:50:27;;;;;;;13.50;6.10;;;;;;;14.86;54.61;100612.63;5086998;28;20483;-67
2021/11/14 02:52:55;;;;;;;13.27;5.70;;;;;;;14.80;54.63;100611.06;5089735;28;20120;-61
2021/11/14 02:55:23;;;;;;;11.03;5.60;;;;;;;14.69;54.98;100599.13;5101911;28;20067;-64
2021/11/14 02:57:52;;;;;;;11.70;5.43;;;;;;;14.64;54.92;100588.00;5092781;28;20123;-59
2021/11/14 03:00:27;;;;;;;13.03;6.93;;;;;;;14.68;55.07;100603.09;5090985;28;20538;-59
2021/11/14 03:02:54;;;;;;;8.73;4.40;;;;;;;14.70;54.97;100605.63;5091662;28;20119;-62
2021/11/14 03:05:22;;;;;;;10.00;4.87;;;;;;;14.71;54.94;100606.44;5089489;28;20066;-68
2021/11/14 03:07:49;;;;;;;10.43;5.20;;;;;;;14.70;54.87;100597.19;5085312;28;20499;-66
2021/11/14 03:10:21;;;;;;;11.73;5.70;;;;;;;14.83;54.24;100599.19;5087612;28;20131;-60
2021/11/14 03:13:02;;;;;;;11.97;5.20;;;;;;;14.95;54.00;100607.16;5087065;28;20048;-64
2021/11/14 03:15:32;;;;;;;10.60;5.37;;;;;;;14.99;53.97;100607.34;5092719;28;20129;-62
2021/11/14 03:18:00;;;;;;;10.60;5.40;;;;;;;15.01;53.88;100605.06;5094609;28;20079;-63
2021/11/14 03:20:27;;;;;;;12.70;6.70;;;;;;;15.04;53.71;100615.69;5095554;28;20095;-60
2021/11/14 03:22:54;;;;;;;12.37;6.83;;;;;;;14.91;54.01;100620.16;5095015;28;20130;-60
2021/11/14 03:25:24;;;;;;;15.73;8.17;;;;;;;14.80;54.20;100613.88;5091651;28;20136;-60
2021/11/14 03:27:52;;;;;;;14.10;7.20;;;;;;;14.71;53.96;100614.88;5104214;28;20559;-58
2021/11/14 03:30:21;;;;;;;8.07;5.17;;;;;;;14.63;54.17;100610.78;5084475;28;20131;-60
2021/11/14 03:32:49;;;;;;;10.67;5.37;;;;;;;14.43;54.51;100595.06;5097007;28;20067;-58
2021/11/14 03:35:17;;;;;;;11.10;5.20;;;;;;;14.46;54.79;100606.53;5094061;28;20419;-58
2021/11/14 03:37:44;;;;;;;10.97;4.80;;;;;;;14.45;54.50;100612.44;5074364;28;20174;-61
2021/11/14 03:40:13;;;;;;;7.60;4.90;;;;;;;14.44;54.77;100607.97;5091988;28;20210;-58
2021/11/14 03:42:40;;;;;;;12.07;4.83;;;;;;;14.44;54.62;100619.22;5090175;28;20131;-58
2021/11/14 03:45:08;;;;;;;9.53;4.97;;;;;;;14.52;54.52;100620.53;5099919;28;20123;-58
2021/11/14 03:47:37;;;;;;;13.17;5.43;;;;;;;14.55;54.25;100625.53;5091406;28;20123;-64
2021/11/14 03:50:06;;;;;;;7.60;4.53;;;;;;;14.46;54.50;100623.41;5091656;28;20052;-60
2021/11/14 03:52:33;;;;;;;6.78;4.22;;;;;;;14.33;54.84;100606.47;5093365;28;20491;-62
2021/11/14 03:55:01;;;;;;;8.57;4.40;;;;;;;13.65;54.42;100499.09;5091875;28;20067;-61
2021/11/14 03:57:28;;;;;;;8.17;4.83;;;;;;;14.14;55.00;100592.41;5094190;28;20044;-62
2021/11/14 03:59:55;;;;;;;9.77;4.77;;;;;;;13.89;54.78;100560.78;5092612;28;20126;-62
2021/11/14 04:02:22;;;;;;;9.37;4.83;;;;;;;14.18;55.16;100621.56;5079394;28;20078;-63
2021/11/14 04:04:49;;;;;;;5.57;3.77;;;;;;;14.05;55.37;100620.34;5097750;28;20051;-61
2021/11/14 04:07:16;;;;;;;4.70;3.17;;;;;;;13.92;55.93;100619.13;5092013;28;20569;-60
2021/11/14 04:09:43;;;;;;;8.47;4.20;;;;;;;13.84;56.18;100607.72;5091142;28;20146;-60
2021/11/14 04:12:09;;;;;;;7.30;4.83;;;;;;;13.82;56.15;100621.22;5092040;28;20126;-60
2021/11/14 04:14:36;;;;;;;6.50;4.10;;;;;;;13.83;56.23;100625.69;5096866;28;20578;-61
2021/11/14 04:17:03;;;;;;;6.87;4.30;;;;;;;13.82;56.14;100626.84;5090880;28;20504;-60
2021/11/14 04:19:30;;;;;;;8.03;4.57;;;;;;;13.87;55.95;100627.59;5098839;28;20099;-60
2021/11/14 04:21:57;;;;;;;6.93;4.90;;;;;;;13.80;56.02;100627.13;5096629;28;20122;-61
2021/11/14 04:24:24;;;;;;;8.07;4.83;;;;;;;13.71;56.36;100620.53;5105333;28;20131;-60
2021/11/14 04:26:50;;;;;;;5.27;3.03;;;;;;;13.63;56.53;100618.38;5100811;28;20542;-61
2021/11/14 04:29:17;;;;;;;3.57;2.10;;;;;;;13.51;57.00;100616.84;5098145;28;20469;-61
2021/11/14 04:31:44;;;;;;;1.23;0.90;;;;;;;13.44;57.17;100602.34;5090086;28;20138;-60
2021/11/14 04:34:11;;;;;;;12.27;1.70;;;;;;;13.42;57.45;100600.94;5096548;28;20044;-62
2021/11/14 04:36:38;;;;;;;2.33;1.87;;;;;;;13.51;56.86;100600.00;5092862;28;20074;-62
2021/11/14 04:39:05;;;;;;;3.97;2.80;;;;;;;13.57;56.64;100599.91;5082857;28;20139;-61
2021/11/14 04:41:32;;;;;;;7.97;3.47;;;;;;;13.76;56.22;100598.00;5078371;28;20036;-61
2021/11/14 04:43:59;;;;;;;7.83;3.23;;;;;;;13.79;56.36;100603.00;5089538;28;20079;-61
2021/11/14 04:46:26;;;;;;;3.63;1.30;;;;;;;13.74;56.45;100594.66;5089097;28;20072;-61
2021/11/14 04:48:53;;;;;;;5.80;3.30;;;;;;;13.66;56.42;100592.53;5091194;28;20105;-60
2021/11/14 04:51:20;;;;;;;2.73;1.90;;;;;;;13.75;56.52;100611.19;5090595;28;20514;-60
2021/11/14 04:53:47;;;;;;;4.30;2.00;;;;;;;13.70;56.49;100588.81;5089984;28;20072;-61
2021/11/14 04:56:14;;;;;;;6.73;4.33;;;;;;;13.75;56.40;100590.72;5088297;28;20068;-60
2021/11/14 04:58:42;;;;;;;8.33;3.83;;;;;;;13.76;56.29;100598.00;5086425;28;20072;-61
2021/11/14 05:01:08;;;;;;;7.50;3.63;;;;;;;13.86;55.93;100603.47;5090887;28;20083;-61
2021/11/14 05:03:36;;;;;;;6.27;4.00;;;;;;;13.92;55.73;100601.44;5091034;28;20079;-61
2021/11/14 05:06:04;;;;;;;5.10;3.40;;;;;;;13.85;55.55;100584.16;5083859;28;20547;-61
2021/11/14 05:08:31;;;;;;;5.43;3.30;;;;;;;13.84;55.62;100591.69;5094283;28;20870;-60
2021/11/14 05:10:58;;;;;;;3.70;1.83;;;;;;;13.75;55.50;100579.50;5073852;28;20558;-61
2021/11/14 05:13:26;;;;;;;4.23;1.97;;;;;;;13.84;55.51;100600.13;5091522;28;20135;-59
2021/11/14 05:15:52;;;;;;;9.30;2.43;;;;;;;13.80;55.56;100596.25;5096685;28;20067;-61
2021/11/14 05:18:19;;;;;;;7.43;3.20;;;;;;;13.80;55.56;100599.06;5089962;28;20040;-62
2021/11/14 05:20:47;;;;;;;6.10;3.33;;;;;;;13.75;55.35;100591.56;5106095;28;20143;-64
2021/11/14 05:23:16;;;;;;;7.70;3.90;;;;;;;13.83;55.24;100604.06;5095545;28;20135;-64
2021/11/14 05:25:43;;;;;;;8.53;3.50;;;;;;;13.88;55.05;100595.59;5087222;28;20043;-63
2021/11/14 05:28:11;;;;;;;5.13;3.30;;;;;;;13.85;54.75;100590.59;5089972;28;20136;-61
2021/11/14 05:30:38;;;;;;;4.43;2.70;;;;;;;13.99;54.77;100605.53;5081785;28;20102;-61
2021/11/14 05:33:05;;;;;;;4.67;3.03;;;;;;;14.03;54.57;100604.94;5090642;28;20083;-61
2021/11/14 05:35:32;;;;;;;3.80;2.77;;;;;;;13.93;54.81;100603.94;5078585;28;20044;-65
2021/11/14 05:37:59;;;;;;;5.63;3.43;;;;;;;14.02;54.58;100597.63;5085917;28;20143;-68
2021/11/14 05:40:26;;;;;;;7.10;2.80;;;;;;;14.02;54.56;100600.44;5085947;28;20068;-64
2021/11/14 05:42:52;;;;;;;6.17;2.97;;;;;;;14.05;54.33;100588.59;5086609;28;20040;-64
2021/11/14 05:45:19;;;;;;;5.60;3.30;;;;;;;14.06;54.47;100598.72;5092687;28;20246;-63
2021/11/14 05:47:46;;;;;;;2.70;2.10;;;;;;;13.98;54.36;100595.47;5090787;28;20151;-64
2021/11/14 05:50:13;;;;;;;2.10;1.43;;;;;;;13.93;54.77;100594.69;5090618;28;20559;-64
2021/11/14 05:52:41;;;;;;;4.60;2.80;;;;;;;13.88;54.89;100594.75;5091553;28;20068;-66
2021/11/14 05:55:08;;;;;;;3.77;2.03;;;;;;;13.88;54.60;100590.00;5095727;28;20138;-68
2021/11/14 05:58:21;;;;;;;1.10;0.73;;;;;;;13.95;54.62;100595.22;5090983;28;20131;-61
2021/11/14 06:00:39;;;;;;;2.63;1.60;;;;;;;13.97;54.39;100596.56;5077923;28;20466;-63
2021/11/14 06:05:39;;;;;;;4.28;1.92;;;;;;;13.76;55.05;100595.19;5093739;28;20512;-62
2021/11/14 06:08:07;;;;;;;4.47;2.27;;;;;;;13.77;54.89;100593.22;5092809;28;20132;-62
2021/11/14 06:10:34;;;;;;;5.73;3.77;;;;;;;13.83;54.69;100592.84;5086898;28;20075;-72
2021/11/14 06:13:02;;;;;;;5.33;2.67;;;;;;;13.97;54.32;100605.00;5093263;28;20147;-73
2021/11/14 06:15:30;;;;;;;3.77;2.37;;;;;;;13.95;54.56;100604.47;5095323;28;20044;-73
2021/11/14 06:17:57;;;;;;;6.60;3.10;;;;;;;13.84;54.61;100604.91;5086768;28;20499;-74
2021/11/14 06:20:23;;;;;;;4.33;2.20;;;;;;;13.82;54.55;100608.03;5078122;28;20213;-73
2021/11/14 06:22:50;;;;;;;3.83;2.93;;;;;;;13.69;54.86;100606.78;5089070;28;20127;-73
2021/11/14 06:25:17;;;;;;;7.60;3.17;;;;;;;13.62;55.06;100608.28;5092881;28;20150;-73
2021/11/14 06:27:45;;;;;;;3.47;2.13;;;;;;;13.46;55.50;100600.03;5093637;28;20126;-73
2021/11/14 06:30:14;;;;;;;5.03;2.37;;;;;;;13.41;55.72;100602.94;5092015;28;20086;-71
2021/11/14 06:32:41;;;;;;;2.90;1.30;;;;;;;13.22;56.36;100600.00;5092399;28;20135;-70
2021/11/14 06:35:09;;;;;;;5.77;1.77;;;;;;;13.16;56.57;100600.34;5088077;28;20136;-69
2021/11/14 06:37:36;;;;;;;6.70;2.40;;;;;;;13.07;56.96;100603.00;5086325;28;20067;-63
2021/11/14 06:40:05;;;;;;;3.40;2.00;;;;;;;12.96;57.12;100602.25;5085111;28;20131;-61
2021/11/14 06:42:31;;;;;;;5.43;3.97;;;;;;;12.94;57.24;100596.09;5082656;28;20073;-60
2021/11/14 06:44:58;;;;;;;9.73;3.50;;;;;;;13.02;57.00;100609.50;5089282;28;20082;-66
2021/11/14 06:47:25;;;;;;;4.77;2.73;;;;;;;12.97;57.02;100606.72;5093564;28;20571;-60
2021/11/14 06:49:52;;;;;;;7.40;3.90;;;;;;;12.93;56.86;100596.41;5091850;28;20143;-60
2021/11/14 06:52:20;;;;;;;8.97;4.17;;;;;;;13.11;56.57;100614.44;5094453;28;20090;-62
2021/11/14 06:54:47;;;;;;;4.87;3.03;;;;;;;13.05;56.80;100620.09;5092634;28;20606;-63
2021/11/14 06:57:18;;;;;;;6.18;3.13;;;;;;;12.94;56.36;100598.91;5089582;28;20044;-64
2021/11/14 06:59:46;;;;;;;7.50;3.57;;;;;;;13.04;56.23;100610.00;5087811;28;20131;-63
2021/11/14 07:02:13;;;;;;;5.77;3.17;;;;;;;13.09;56.53;100627.91;5089819;28;20138;-63
2021/11/14 07:04:41;;;;;;;7.53;1.63;;;;;;;13.01;56.66;100629.41;5100158;28;20044;-67
2021/11/14 07:07:09;;;;;;;5.43;3.40;;;;;;;12.94;57.06;100632.53;5092356;28;20384;-63
2021/11/14 07:09:36;;;;;;;5.50;3.80;;;;;;;12.96;56.80;100629.47;5090241;28;20129;-62
2021/11/14 07:12:03;;;;;;;3.50;2.00;;;;;;;12.95;57.00;100628.59;5091075;28;20087;-59
2021/11/14 07:14:30;;;;;;;8.63;4.10;;;;;;;12.97;57.02;100637.56;5090832;28;20206;-60
2021/11/14 07:16:57;;;;;;;7.27;3.90;;;;;;;12.99;56.73;100629.72;5086327;28;20079;-58
2021/11/14 07:19:25;;;;;;;8.03;3.57;;;;;;;12.99;56.40;100624.09;5081687;28;20056;-60
2021/11/14 07:21:51;;;;;;;7.73;4.00;;;;;;;12.98;56.35;100629.97;5072157;28;20091;-59
2021/11/14 07:24:21;;;;;;;7.80;4.13;;;;;;;13.08;56.28;100640.28;5074020;28;20040;-59
2021/11/14 07:26:48;;;;;;;9.60;3.63;;;;;;;13.13;56.18;100640.19;5067861;28;20462;-59
2021/11/14 07:29:15;;;;;;;6.90;3.20;;;;;;;13.15;56.04;100644.38;5057108;28;20119;-60
2021/11/14 07:31:42;;;;;;;5.43;3.47;;;;;;;13.16;56.01;100645.22;5074775;28;20180;-59
2021/11/14 07:34:09;;;;;;;5.40;3.57;;;;;;;12.99;56.43;100635.31;5069301;28;20512;-60
2021/11/14 07:36:36;;;;;;;6.17;3.93;;;;;;;13.08;56.22;100643.06;5071383;28;20127;-58
2021/11/14 07:39:03;;;;;;;4.43;3.13;;;;;;;13.02;56.44;100639.47;5065237;28;20132;-59
2021/11/14 07:41:30;;;;;;;10.03;4.53;;;;;;;13.23;56.18;100651.31;5057670;28;20426;-56
2021/11/14 07:43:57;;;;;;;9.30;4.23;;;;;;;13.41;55.66;100658.19;5062156;28;20131;-58
2021/11/14 07:46:24;;;;;;;9.73;4.80;;;;;;;13.50;55.29;100659.19;5076425;28;20128;-57
2021/11/14 07:48:51;;;;;;;7.80;4.03;;;;;;;13.49;55.55;100649.94;5054435;28;20040;-57
2021/11/14 07:51:18;;;;;;;10.23;4.37;;;;;;;13.64;55.54;100656.50;5077137;28;20503;-60
2021/11/14 07:53:45;;;;;;;9.73;4.83;;;;;;;13.90;55.32;100683.16;5075668;28;20119;-61
2021/11/14 07:56:12;;;;;;;9.60;4.97;;;;;;;14.02;55.17;100685.53;5070854;28;20075;-57
2021/11/14 07:58:39;;;;;;;7.80;4.20;;;;;;;14.08;55.07;100694.72;5070614;28;20075;-58
2021/11/14 08:01:06;;;;;;;6.83;3.80;;;;;;;14.35;54.81;100692.09;5068816;28;20076;-59
2021/11/14 08:03:33;;;;;;;6.63;3.77;;;;;;;14.65;54.42;100698.44;5067574;28;20076;-59
2021/11/14 08:06:02;;;;;;;7.33;3.73;;;;;;;14.87;54.07;100695.00;5066238;28;20095;-58
2021/11/14 08:08:29;;;;;;;4.87;2.97;;;;;;;15.28;53.67;100699.94;5082180;28;20083;-59
2021/11/14 08:10:56;;;;;;;5.17;3.30;;;;;;;15.68;52.81;100706.00;5070925;28;20126;-59
2021/11/14 08:13:23;;;;;;;6.47;3.60;;;;;;;16.13;52.07;100707.03;5078620;28;20042;-59
2021/11/14 08:15:50;;;;;;;5.80;3.27;;;;;;;16.51;51.77;100703.94;5063623;28;20068;-59
2021/11/14 08:18:17;;;;;;;9.27;3.27;;;;;;;16.70;51.19;100696.16;5072464;28;20139;-59
2021/11/14 08:20:46;;;;;;;7.18;3.47;;;;;;;17.01;50.20;100690.63;5084979;28;20105;-59
2021/11/14 08:23:14;;;;;;;5.22;3.65;;;;;;;17.45;49.90;100710.69;5092420;28;20472;-59
2021/11/14 08:25:43;;;;;;;10.27;3.65;;;;;;;17.82;49.48;100709.44;5091121;28;20076;-59
2021/11/14 08:28:11;;;;;;;6.78;3.80;;;;;;;18.11;49.36;100714.50;5091284;28;20127;-59
2021/11/14 08:30:38;;;;;;;7.68;4.95;;;;;;;18.18;49.12;100700.72;5088108;28;20130;-60
2021/11/14 08:33:05;;;;;;;5.38;3.67;;;;;;;18.46;48.75;100711.75;5089955;28;20134;-61
2021/11/14 08:35:34;;;;;;;5.82;4.05;;;;;;;18.98;48.56;100717.50;5089922;28;20127;-66
2021/11/14 08:38:01;;;;;;;9.32;3.47;;;;;;;19.64;47.62;100720.94;5088363;28;20072;-60
2021/11/14 08:40:33;;;;;;;6.20;3.92;;;;;;;20.42;46.87;100721.75;5083681;28;20124;-62
2021/11/14 08:43:01;;;;;;;5.85;3.20;;;;;;;21.11;46.01;100723.28;5084142;28;20958;-66
2021/11/14 08:45:29;;;;;;;6.05;3.88;;;;;;;21.59;45.25;100719.81;5087849;28;20587;-59
2021/11/14 08:47:57;;;;;;;5.35;4.15;;;;;;;22.16;43.96;100718.16;5090737;28;20050;-59
2021/11/14 08:50:26;;;;;;;6.57;3.40;;;;;;;22.67;43.10;100727.13;5094048;28;20079;-59
2021/11/14 08:52:57;;;;;;;8.25;3.90;;;;;;;23.11;42.53;100718.72;5087850;28;20121;-59
2021/11/14 08:55:25;;;;;;;6.30;3.55;;;;;;;23.62;41.42;100727.50;5088892;28;20086;-59
2021/11/14 08:57:54;;;;;;;5.03;3.22;;;;;;;23.81;40.49;100718.28;5096659;28;20138;-61
2021/11/14 09:00:25;;;;;;;6.35;3.70;;;;;;;24.29;40.14;100722.78;5086703;28;20079;-60
2021/11/14 09:02:54;;;;;;;7.55;3.70;;;;;;;24.97;39.23;100723.56;5090776;28;20068;-63
2021/11/14 09:05:24;;;;;;;6.45;3.60;;;;;;;25.66;38.08;100733.19;5090846;28;20036;-57
2021/11/14 09:07:56;;;;;;;5.80;3.70;;;;;;;26.38;37.07;100715.28;5089381;28;20139;-61
2021/11/14 09:10:24;;;;;;;7.80;4.57;;;;;;;27.29;36.00;100721.16;5093857;28;20142;-58
2021/11/14 09:12:51;;;;;;;6.57;4.57;;;;;;;28.04;34.83;100722.00;5087933;28;20090;-59
2021/11/14 09:15:20;;;;;;;8.57;3.42;;;;;;;28.74;33.42;100726.66;5090764;28;20139;-70
2021/11/14 09:18:08;;;;;;;5.15;3.85;;;;;;;28.87;32.97;100698.41;5086530;28;20068;-62
2021/11/14 09:20:35;;;;;;;10.15;3.90;;;;;;;29.31;32.35;100726.16;5069541;28;20582;-61
2021/11/14 09:23:02;;;;;;;5.90;3.95;;;;;;;29.40;31.79;100723.75;5091085;28;20086;-60
2021/11/14 09:25:29;;;;;;;5.50;2.90;;;;;;;29.24;31.65;100726.13;5091323;28;20082;-61
2021/11/14 09:27:56;;;;;;;5.70;4.25;;;;;;;29.66;30.72;100727.53;5088855;28;20036;-61
2021/11/14 09:30:23;;;;;;;7.18;4.30;;;;;;;30.18;30.08;100725.16;5111002;28;20087;-60
2021/11/14 09:32:50;;;;;;;4.97;3.67;;;;;;;30.60;29.15;100735.88;5107445;28;20040;-61
2021/11/14 09:35:17;;;;;;;8.15;3.88;;;;;;;30.43;28.19;100728.88;5109688;28;20127;-60
2021/11/14 09:37:44;;;;;;;7.28;4.20;;;;;;;30.39;28.86;100722.31;5100867;28;20467;-60
2021/11/14 09:40:11;;;;;;;7.38;4.63;;;;;;;30.71;28.92;100721.44;5094782;28;20147;-62
2021/11/14 09:42:38;;;;;;;5.65;3.33;;;;;;;31.08;27.64;100720.97;5103268;28;20454;-61
2021/11/14 09:45:08;;;;;;;5.63;3.78;;;;;;;30.86;27.74;100719.38;5098429;28;20080;-62
2021/11/14 09:47:38;;;;;;;5.38;3.90;;;;;;;29.95;26.89;100711.16;5100559;28;20047;-62
2021/11/14 09:50:07;;;;;;;4.78;3.60;;;;;;;29.21;27.43;100721.19;5096507;28;20135;-62
2021/11/14 09:52:34;;;;;;;9.70;3.97;;;;;;;28.94;27.88;100729.25;5096175;28;20106;-62
2021/11/14 09:55:05;;;;;;;5.43;4.00;;;;;;;29.04;27.67;100711.25;5084317;28;20667;-62
2021/11/14 09:57:36;;;;;;;5.20;4.00;;;;;;;29.49;28.00;100729.09;5094344;28;20055;-61
2021/11/14 10:00:07;;;;;;;7.93;3.92;;;;;;;29.89;27.12;100707.03;5095132;28;20131;-62
2021/11/14 10:02:36;;;;;;;5.30;3.60;;;;;;;30.32;27.31;100713.66;5104723;28;20075;-62
2021/11/14 10:05:05;;;;;;;8.27;4.18;;;;;;;29.73;27.26;100727.56;5115084;28;20056;-61
2021/11/14 10:07:38;;;;;;;4.65;3.80;;;;;;;28.92;27.52;100737.44;5111023;28;20087;-62
2021/11/14 10:10:09;;;;;;;6.00;4.40;;;;;;;28.47;28.25;100716.63;5074529;28;20084;-62
2021/11/14 10:12:39;;;;;;;8.05;4.55;;;;;;;28.93;27.74;100734.16;5098637;28;20041;-62
2021/11/14 10:15:09;;;;;;;8.77;5.05;;;;;;;29.53;28.06;100732.81;5084084;28;20130;-62
2021/11/14 10:17:37;;;;;;;6.63;3.80;;;;;;;29.79;27.43;100730.88;5107200;28;20134;-62
2021/11/14 10:20:23;;;;;;;4.90;4.05;;;;;;;28.99;26.66;100738.34;5095931;28;20139;-62
2021/11/14 10:22:54;;;;;;;12.57;4.45;;;;;;;28.29;27.05;100734.50;5094640;28;20170;-62
2021/11/14 10:25:22;;;;;;;6.30;4.38;;;;;;;28.26;27.72;100734.47;5093847;28;20075;-61
2021/11/14 10:27:55;;;;;;;5.45;4.35;;;;;;;28.64;27.39;100738.91;5103026;28;20074;-61
2021/11/14 10:30:25;;;;;;;7.30;4.03;;;;;;;28.96;27.54;100738.31;5098580;28;20134;-61
2021/11/14 10:33:07;;;;;;;6.80;4.25;;;;;;;29.46;27.32;100736.47;5091345;28;20054;-61
2021/11/14 10:35:35;;;;;;;4.97;3.75;;;;;;;29.94;26.28;100747.75;5105012;28;20457;-61
2021/11/14 10:38:09;;;;;;;6.63;4.40;;;;;;;30.22;26.93;100746.16;5094139;28;20134;-61
2021/11/14 10:40:41;;;;;;;7.22;4.43;;;;;;;30.24;25.62;100743.69;5106931;28;20071;-61
2021/11/14 10:43:08;;;;;;;5.90;4.90;;;;;;;29.88;26.23;100748.56;5112732;28;20086;-61
2021/11/14 10:45:38;;;;;;;8.70;5.35;;;;;;;29.94;25.98;100739.09;5102014;28;20072;-61
2021/11/14 10:48:12;;;;;;;8.05;5.85;;;;;;;30.38;25.96;100737.94;5093741;28;20087;-61
2021/11/14 10:50:43;;;;;;;8.05;5.65;;;;;;;30.81;25.52;100728.47;5091833;28;20486;-61
2021/11/14 10:53:13;;;;;;;8.18;5.97;;;;;;;31.33;24.79;100738.19;5101703;28;20082;-62
2021/11/14 10:55:43;;;;;;;7.13;5.50;;;;;;;31.86;24.82;100728.44;5103811;28;20119;-62
2021/11/14 10:58:11;;;;;;;7.85;5.80;;;;;;;32.25;24.12;100732.28;5111477;28;20090;-62
2021/11/14 11:00:40;;;;;;;10.15;6.50;;;;;;;32.73;23.85;100723.59;5098038;28;20407;-62
2021/11/14 11:03:09;;;;;;;7.43;5.95;;;;;;;32.97;23.70;100706.44;5109315;28;20083;-62
2021/11/14 11:05:36;;;;;;;;;;;;;;;33.59;24.99;100742.06;5094493;28;20139;-62
2021/11/14 11:08:17;;;;;;;10.52;6.07;;;;;;;34.03;23.35;100743.94;5095831;28;20007;-63
2021/11/14 11:10:51;;;;;;;7.90;5.93;;;;;;;34.41;22.90;100744.53;5111830;28;20083;-60
2021/11/14 11:13:33;;;;;;;12.57;6.55;;;;;;;34.64;22.37;100729.25;5112199;28;20154;-61
2021/11/14 11:16:21;;;;;;;6.90;5.25;;;;;;;34.93;21.90;100728.69;5079870;28;20135;-61
2021/11/14 11:19:02;;;;;;;12.38;6.13;;;;;;;35.32;21.65;100738.75;5087336;28;20137;-61
2021/11/14 11:21:35;;;;;;;8.25;5.35;;;;;;;35.38;20.89;100728.22;5096361;28;20086;-61
2021/11/14 11:24:16;;;;;;;8.82;5.38;;;;;;;35.58;21.21;100726.13;5108291;28;20043;-62
2021/11/14 11:27:13;;;;;;;9.52;5.40;;;;;;;36.00;20.83;100723.56;5058568;28;20084;-62
2021/11/14 11:29:40;;;;;;;6.38;5.65;;;;;;;35.97;20.07;100727.31;5102055;28;20043;-62
2021/11/14 11:32:13;;;;;;;7.72;4.93;;;;;;;36.13;20.06;100722.81;5098798;28;20106;-62